Time;durP1;ratioP1;P1;durP2;ratioP2;P2;SDS_P1;SDS_P2;PMS_P1;PMS_P2;Temp;Humidity;BMP_temperature;BMP_pressure;BME280_temperature;BME280_humidity;BME280_pressure;Samples;Min_cycle;Max_cycle;Signal;HPM_P1;HPM_P2
2022/09/01 00:01:28;;;;;;;;;;;20.60;99.90;;;;;;4588355;19;19944;-25
2022/09/01 00:03:02;;;;;;;;;;;20.60;99.90;;;;;;4588752;19;19974;-24
2022/09/01 00:04:35;;;;;;;;;;;20.60;99.90;;;;;;4589556;19;20295;-24
2022/09/01 00:06:08;;;;;;;;;;;20.50;99.90;;;;;;4588699;19;19925;-24
2022/09/01 00:07:39;;;;;;;;;;;20.60;99.90;;;;;;4589671;19;19978;-26
2022/09/01 00:09:12;;;;;;;;;;;20.50;99.90;;;;;;4588468;19;19915;-25
2022/09/01 00:10:43;;;;;;;;;;;20.50;99.90;;;;;;4589521;19;19921;-23
2022/09/01 00:12:14;;;;;;;;;;;20.50;99.90;;;;;;4588657;19;19949;-24
2022/09/01 00:13:45;;;;;;;;;;;20.60;99.90;;;;;;4589356;19;19918;-27
2022/09/01 00:15:17;;;;;;;;;;;20.50;99.90;;;;;;4589176;19;19930;-25
2022/09/01 00:16:48;;;;;;;;;;;20.50;99.90;;;;;;4588575;19;19918;-24
2022/09/01 00:18:19;;;;;;;;;;;20.50;99.90;;;;;;4588535;19;20270;-25
2022/09/01 00:19:50;;;;;;;;;;;20.50;99.90;;;;;;4588843;19;20383;-23
2022/09/01 00:21:22;;;;;;;;;;;20.50;99.90;;;;;;4588964;19;19926;-25
2022/09/01 00:22:54;;;;;;;;;;;20.50;99.90;;;;;;4586896;19;19922;-24
2022/09/01 00:24:25;;;;;;;;;;;20.50;99.90;;;;;;4591229;19;19923;-26
2022/09/01 00:25:56;;;;;;;;;;;20.50;99.90;;;;;;4590892;19;19914;-24
2022/09/01 00:27:27;;;;;;;;;;;20.50;99.90;;;;;;4590022;19;19944;-24
2022/09/01 00:28:58;;;;;;;;;;;20.50;99.90;;;;;;4590878;19;19970;-26
2022/09/01 00:30:29;;;;;;;;;;;20.50;99.90;;;;;;4591304;19;19982;-25
2022/09/01 00:32:00;;;;;;;;;;;20.50;99.90;;;;;;4589602;19;19969;-25
2022/09/01 00:33:35;;;;;;;;;;;20.50;99.90;;;;;;4588849;19;19926;-26
2022/09/01 00:35:07;;;;;;;;;;;20.50;99.90;;;;;;4591326;19;20009;-26
2022/09/01 00:36:38;;;;;;;;;;;20.50;99.90;;;;;;4589978;19;19914;-24
2022/09/01 00:38:09;;;;;;;;;;;20.50;99.90;;;;;;4590451;19;19936;-24
2022/09/01 00:39:40;;;;;;;;;;;20.50;99.90;;;;;;4589298;19;20456;-24
2022/09/01 00:41:11;;;;;;;;;;;20.50;99.90;;;;;;4589835;19;19923;-24
2022/09/01 00:42:43;;;;;;;;;;;20.50;99.90;;;;;;4590963;19;19911;-24
2022/09/01 00:44:15;;;;;;;;;;;20.50;99.90;;;;;;4590901;19;19990;-27
2022/09/01 00:45:47;;;;;;;;;;;20.50;99.90;;;;;;4590353;19;19926;-25
2022/09/01 00:47:18;;;;;;;;;;;20.50;99.90;;;;;;4589500;19;19926;-26
2022/09/01 00:49:12;;;;;;;;;;;20.50;99.90;;;;;;4590325;19;19928;-24
2022/09/01 00:50:43;;;;;;;;;;;20.50;99.90;;;;;;4588887;19;19926;-23
2022/09/01 00:52:19;;;;;;;;;;;20.50;99.90;;;;;;4590214;19;19929;-24
2022/09/01 00:53:50;;;;;;;;;;;20.50;99.90;;;;;;4590511;19;19941;-24
2022/09/01 00:55:24;;;;;;;;;;;20.50;99.90;;;;;;4590003;19;20324;-24
2022/09/01 00:56:55;;;;;;;;;;;20.50;99.90;;;;;;4589980;19;20241;-24
2022/09/01 00:58:26;;;;;;;;;;;20.50;99.90;;;;;;4589780;19;19919;-24
2022/09/01 00:59:58;;;;;;;;;;;20.50;99.90;;;;;;4590573;19;19930;-25
2022/09/01 01:01:29;;;;;;;;;;;20.50;99.90;;;;;;4589835;19;19911;-23
2022/09/01 01:03:00;;;;;;;;;;;20.50;99.90;;;;;;4589478;19;19944;-24
2022/09/01 01:04:31;;;;;;;;;;;20.50;99.90;;;;;;4588865;19;19991;-24
2022/09/01 01:06:04;;;;;;;;;;;20.50;99.90;;;;;;4590148;19;19917;-24
2022/09/01 01:07:41;;;;;;;;;;;20.50;99.90;;;;;;4589876;19;19911;-25
2022/09/01 01:09:12;;;;;;;;;;;20.50;99.90;;;;;;4589265;19;20301;-24
2022/09/01 01:10:43;;;;;;;;;;;20.50;99.90;;;;;;4589666;19;19925;-25
2022/09/01 01:12:16;;;;;;;;;;;20.50;99.90;;;;;;4590635;19;20239;-23
2022/09/01 01:13:49;;;;;;;;;;;20.50;99.90;;;;;;4590646;19;19978;-24
2022/09/01 01:15:21;;;;;;;;;;;20.50;99.90;;;;;;4590248;19;20279;-27
2022/09/01 01:16:54;;;;;;;;;;;20.50;99.90;;;;;;4589945;19;19958;-24
2022/09/01 01:18:24;;;;;;;;;;;20.50;99.90;;;;;;4590314;19;19931;-25
2022/09/01 01:23:39;;;;;;;;;;;20.50;99.90;;;;;;4589406;19;19910;-24
2022/09/01 01:25:11;;;;;;;;;;;20.50;99.90;;;;;;4589906;19;19919;-26
2022/09/01 01:26:42;;;;;;;;;;;20.50;99.90;;;;;;4589261;19;19919;-25
2022/09/01 01:28:20;;;;;;;;;;;20.50;99.90;;;;;;4589770;19;19993;-25
2022/09/01 01:29:52;;;;;;;;;;;20.50;99.90;;;;;;4589957;19;19938;-23
2022/09/01 01:31:24;;;;;;;;;;;20.50;99.90;;;;;;4594487;19;19922;-24
2022/09/01 01:32:58;;;;;;;;;;;20.50;99.90;;;;;;4593368;19;19984;-24
2022/09/01 01:34:29;;;;;;;;;;;20.50;99.90;;;;;;4594154;19;19918;-26
2022/09/01 01:36:01;;;;;;;;;;;20.50;99.90;;;;;;4594618;19;19922;-24
2022/09/01 01:37:35;;;;;;;;;;;20.50;99.90;;;;;;4594659;19;19939;-23
2022/09/01 01:39:06;;;;;;;;;;;20.50;99.90;;;;;;4594244;19;19919;-26
2022/09/01 01:40:37;;;;;;;;;;;20.50;99.90;;;;;;4593776;19;19937;-25
2022/09/01 01:42:08;;;;;;;;;;;20.50;99.90;;;;;;4593722;19;20356;-26
2022/09/01 01:43:39;;;;;;;;;;;20.50;99.90;;;;;;4592687;19;19922;-24
2022/09/01 01:45:11;;;;;;;;;;;20.50;99.90;;;;;;4593752;19;19910;-24
2022/09/01 01:46:44;;;;;;;;;;;20.50;99.90;;;;;;4592293;19;19914;-24
2022/09/01 01:48:21;;;;;;;;;;;20.40;99.90;;;;;;4593482;19;19922;-24
2022/09/01 01:49:53;;;;;;;;;;;20.50;99.90;;;;;;4591011;19;19922;-24
2022/09/01 01:51:26;;;;;;;;;;;20.50;99.90;;;;;;4593264;19;19923;-26
2022/09/01 01:52:58;;;;;;;;;;;20.50;99.90;;;;;;4593015;19;19922;-24
2022/09/01 01:54:31;;;;;;;;;;;20.50;99.90;;;;;;4594009;19;19923;-26
2022/09/01 01:56:02;;;;;;;;;;;20.50;99.90;;;;;;4594234;19;20252;-24
2022/09/01 01:57:34;;;;;;;;;;;20.50;99.90;;;;;;4593435;19;20642;-27
2022/09/01 01:59:05;;;;;;;;;;;20.50;99.90;;;;;;4592998;19;19943;-24
2022/09/01 02:00:37;;;;;;;;;;;20.40;99.90;;;;;;4593961;19;19919;-27
2022/09/01 02:02:08;;;;;;;;;;;20.40;99.90;;;;;;4592977;19;19937;-24
2022/09/01 02:03:39;;;;;;;;;;;20.40;99.90;;;;;;4590312;19;19918;-24
2022/09/01 02:05:12;;;;;;;;;;;20.50;99.90;;;;;;4592873;19;19915;-25
2022/09/01 02:06:46;;;;;;;;;;;20.50;99.90;;;;;;4593996;19;19940;-24
2022/09/01 02:08:19;;;;;;;;;;;20.40;99.90;;;;;;4592825;19;19955;-24
2022/09/01 02:09:50;;;;;;;;;;;20.40;99.90;;;;;;4593308;19;19921;-25
2022/09/01 02:11:21;;;;;;;;;;;20.50;99.90;;;;;;4592837;19;19923;-25
2022/09/01 02:12:52;;;;;;;;;;;20.40;99.90;;;;;;4592238;19;19937;-24
2022/09/01 02:14:23;;;;;;;;;;;20.50;99.90;;;;;;4593070;19;19910;-23
2022/09/01 02:15:54;;;;;;;;;;;20.40;99.90;;;;;;4592197;19;19926;-25
2022/09/01 02:17:26;;;;;;;;;;;20.40;99.90;;;;;;4591433;19;19933;-24
2022/09/01 02:18:57;;;;;;;;;;;20.50;99.90;;;;;;4592090;19;19918;-24
2022/09/01 02:20:28;;;;;;;;;;;20.50;99.90;;;;;;4593512;19;19982;-24
2022/09/01 02:21:59;;;;;;;;;;;20.50;99.90;;;;;;4592596;19;20282;-27
2022/09/01 02:23:31;;;;;;;;;;;20.40;99.90;;;;;;4592410;19;19918;-23
2022/09/01 02:25:04;;;;;;;;;;;20.50;99.90;;;;;;4592463;19;19944;-27
2022/09/01 02:26:38;;;;;;;;;;;20.40;99.90;;;;;;4593541;19;20336;-24
2022/09/01 02:28:14;;;;;;;;;;;20.40;99.90;;;;;;4591949;19;20257;-26
2022/09/01 02:29:45;;;;;;;;;;;20.40;99.90;;;;;;4593321;19;19918;-23
2022/09/01 02:31:19;;;;;;;;;;;20.40;99.90;;;;;;4593094;19;20237;-26
2022/09/01 02:32:51;;;;;;;;;;;20.40;99.90;;;;;;4593655;19;19911;-25
2022/09/01 02:34:22;;;;;;;;;;;20.40;99.90;;;;;;4592492;19;19950;-24
2022/09/01 02:35:54;;;;;;;;;;;20.40;99.90;;;;;;4591775;19;19934;-24
2022/09/01 02:37:25;;;;;;;;;;;20.50;99.90;;;;;;4593117;19;19929;-26
2022/09/01 02:38:57;;;;;;;;;;;20.50;99.90;;;;;;4593354;19;20256;-24
2022/09/01 02:40:30;;;;;;;;;;;20.40;99.90;;;;;;4592995;19;19934;-25
2022/09/01 02:42:01;;;;;;;;;;;20.40;99.90;;;;;;4590317;19;19911;-26
2022/09/01 02:43:32;;;;;;;;;;;20.40;99.90;;;;;;4592362;19;19939;-25
2022/09/01 02:45:10;;;;;;;;;;;20.40;99.90;;;;;;4592743;19;19914;-25
2022/09/01 02:46:42;;;;;;;;;;;20.40;99.90;;;;;;4591592;19;20357;-25
2022/09/01 02:48:13;;;;;;;;;;;20.50;99.90;;;;;;4592951;19;20311;-24
2022/09/01 02:49:45;;;;;;;;;;;20.50;99.90;;;;;;4593453;19;19928;-26
2022/09/01 02:51:17;;;;;;;;;;;20.40;99.90;;;;;;4592633;19;19923;-24
2022/09/01 02:52:51;;;;;;;;;;;20.40;99.90;;;;;;4593099;19;19944;-27
2022/09/01 02:54:23;;;;;;;;;;;20.40;99.90;;;;;;4592259;19;19918;-25
2022/09/01 02:55:57;;;;;;;;;;;20.40;99.90;;;;;;4593165;19;19918;-26
2022/09/01 02:57:33;;;;;;;;;;;20.40;99.90;;;;;;4592541;19;19946;-24
2022/09/01 02:59:04;;;;;;;;;;;20.40;99.90;;;;;;4592569;19;20305;-24
2022/09/01 03:00:38;;;;;;;;;;;20.40;99.90;;;;;;4593204;19;19919;-25
2022/09/01 03:02:09;;;;;;;;;;;20.40;99.90;;;;;;4591926;19;19918;-25
2022/09/01 03:03:40;;;;;;;;;;;20.40;99.90;;;;;;4591473;19;20324;-24
2022/09/01 03:05:14;;;;;;;;;;;20.40;99.90;;;;;;4592918;19;19922;-25
2022/09/01 03:06:45;;;;;;;;;;;20.40;99.90;;;;;;4593028;19;19923;-25
2022/09/01 03:08:17;;;;;;;;;;;20.40;99.90;;;;;;4592540;19;19946;-24
2022/09/01 03:09:48;;;;;;;;;;;20.40;99.90;;;;;;4592237;19;19914;-25
2022/09/01 03:11:20;;;;;;;;;;;20.40;99.90;;;;;;4592832;19;19919;-25
2022/09/01 03:12:50;;;;;;;;;;;20.40;99.90;;;;;;4591970;19;19978;-24
2022/09/01 03:14:23;;;;;;;;;;;20.40;99.90;;;;;;4592309;19;19925;-24
2022/09/01 03:15:54;;;;;;;;;;;20.40;99.90;;;;;;4592653;19;19940;-25
2022/09/01 03:17:25;;;;;;;;;;;20.40;99.90;;;;;;4593136;19;19919;-24
2022/09/01 03:18:56;;;;;;;;;;;20.40;99.90;;;;;;4591936;19;19918;-26
2022/09/01 03:20:27;;;;;;;;;;;20.40;99.90;;;;;;4591553;19;19919;-26
2022/09/01 03:21:59;;;;;;;;;;;20.40;99.90;;;;;;4592387;19;19941;-24
2022/09/01 03:23:30;;;;;;;;;;;20.40;99.90;;;;;;4591600;19;19978;-24
2022/09/01 03:25:01;;;;;;;;;;;20.40;99.90;;;;;;4592977;19;19923;-24
2022/09/01 03:26:32;;;;;;;;;;;20.40;99.90;;;;;;4592648;19;19922;-24
2022/09/01 03:28:03;;;;;;;;;;;20.40;99.90;;;;;;4592654;19;19954;-26
2022/09/01 03:29:34;;;;;;;;;;;20.40;99.90;;;;;;4592809;19;19926;-24
2022/09/01 03:31:06;;;;;;;;;;;20.40;99.90;;;;;;4592349;19;19917;-25
2022/09/01 03:32:37;;;;;;;;;;;20.40;99.90;;;;;;4591463;19;19927;-24
2022/09/01 03:34:09;;;;;;;;;;;20.40;99.90;;;;;;4591428;19;19992;-25
2022/09/01 03:35:40;;;;;;;;;;;20.40;99.90;;;;;;4594181;19;19921;-27
2022/09/01 03:37:11;;;;;;;;;;;20.40;99.90;;;;;;4594230;19;20387;-23
2022/09/01 03:38:42;;;;;;;;;;;20.40;99.90;;;;;;4594449;19;20364;-25
2022/09/01 03:40:14;;;;;;;;;;;20.40;99.90;;;;;;4594142;19;19944;-24
2022/09/01 03:41:45;;;;;;;;;;;20.40;99.90;;;;;;4595073;19;19932;-24
2022/09/01 03:43:18;;;;;;;;;;;20.40;99.90;;;;;;4591807;19;19921;-27
2022/09/01 03:44:50;;;;;;;;;;;20.40;99.90;;;;;;4591080;19;19936;-24
2022/09/01 03:46:21;;;;;;;;;;;20.40;99.90;;;;;;4590377;19;20252;-24
2022/09/01 03:47:53;;;;;;;;;;;20.40;99.90;;;;;;4592135;19;19918;-24
2022/09/01 03:49:27;;;;;;;;;;;20.40;99.90;;;;;;4592241;19;19915;-24
2022/09/01 03:51:01;;;;;;;;;;;20.40;99.90;;;;;;4590828;19;20340;-24
2022/09/01 03:52:33;;;;;;;;;;;20.40;99.90;;;;;;4591277;19;19911;-24
2022/09/01 03:54:04;;;;;;;;;;;20.40;99.90;;;;;;4591849;19;19914;-25
2022/09/01 03:55:36;;;;;;;;;;;20.40;99.90;;;;;;4591911;19;20033;-24
2022/09/01 03:57:08;;;;;;;;;;;20.40;99.90;;;;;;4591896;19;19960;-24
2022/09/01 03:58:40;;;;;;;;;;;20.40;99.90;;;;;;4592247;19;19927;-24
2022/09/01 04:00:19;;;;;;;;;;;20.40;99.90;;;;;;4590739;19;19969;-24
2022/09/01 04:01:50;;;;;;;;;;;20.40;99.90;;;;;;4590950;19;19941;-24
2022/09/01 04:03:22;;;;;;;;;;;20.40;99.90;;;;;;4590914;19;19939;-24
2022/09/01 04:04:53;;;;;;;;;;;20.40;99.90;;;;;;4592061;19;19919;-27
2022/09/01 04:06:24;;;;;;;;;;;20.40;99.90;;;;;;4591625;19;19923;-24
2022/09/01 04:07:56;;;;;;;;;;;20.40;99.90;;;;;;4591854;19;19918;-25
2022/09/01 04:09:27;;;;;;;;;;;20.40;99.90;;;;;;4591623;19;20253;-26
2022/09/01 04:11:01;;;;;;;;;;;20.40;99.90;;;;;;4592021;19;19930;-26
2022/09/01 04:12:32;;;;;;;;;;;20.40;99.90;;;;;;4590296;19;19918;-24
2022/09/01 04:14:03;;;;;;;;;;;20.40;99.90;;;;;;4591277;19;20300;-25
2022/09/01 04:15:35;;;;;;;;;;;20.40;99.90;;;;;;4591767;19;19919;-24
2022/09/01 04:18:55;;;;;;;;;;;20.40;99.90;;;;;;4591554;19;19937;-24
2022/09/01 04:20:26;;;;;;;;;;;20.40;99.90;;;;;;4591379;19;20350;-24
2022/09/01 04:22:01;;;;;;;;;;;20.40;99.90;;;;;;4591517;19;19910;-25
2022/09/01 04:23:32;;;;;;;;;;;20.40;99.90;;;;;;4590994;19;19915;-25
2022/09/01 04:25:04;;;;;;;;;;;20.40;99.90;;;;;;4591324;19;20279;-26
2022/09/01 04:26:36;;;;;;;;;;;20.40;99.90;;;;;;4591234;19;20264;-24
2022/09/01 04:28:16;;;;;;;;;;;20.40;99.90;;;;;;4591176;19;20328;-24
2022/09/01 04:29:47;;;;;;;;;;;20.40;99.90;;;;;;4591708;19;20324;-27
2022/09/01 04:31:19;;;;;;;;;;;20.40;99.90;;;;;;4590152;19;20321;-24
2022/09/01 04:32:50;;;;;;;;;;;20.40;99.90;;;;;;4591049;19;19915;-24
2022/09/01 04:34:22;;;;;;;;;;;20.40;99.90;;;;;;4589928;19;20297;-24
2022/09/01 04:35:55;;;;;;;;;;;20.50;99.90;;;;;;4590785;19;19915;-25
2022/09/01 04:37:27;;;;;;;;;;;20.40;99.90;;;;;;4590982;19;20249;-22
2022/09/01 04:38:59;;;;;;;;;;;20.40;99.90;;;;;;4591106;19;19915;-26
2022/09/01 04:40:30;;;;;;;;;;;20.40;99.90;;;;;;4589393;19;20307;-24
2022/09/01 04:42:05;;;;;;;;;;;20.40;99.90;;;;;;4590601;19;19922;-24
2022/09/01 04:43:35;;;;;;;;;;;20.50;99.90;;;;;;4590156;19;19911;-24
2022/09/01 04:45:09;;;;;;;;;;;20.40;99.90;;;;;;4591145;19;20344;-24
2022/09/01 04:46:41;;;;;;;;;;;20.50;99.90;;;;;;4590205;19;19922;-24
2022/09/01 04:48:12;;;;;;;;;;;20.50;99.90;;;;;;4590905;19;20329;-27
2022/09/01 04:49:49;;;;;;;;;;;20.40;99.90;;;;;;4590673;19;19919;-25
2022/09/01 04:51:21;;;;;;;;;;;20.50;99.90;;;;;;4592768;19;19940;-24
2022/09/01 04:52:54;;;;;;;;;;;20.50;99.90;;;;;;4589721;19;19990;-24
2022/09/01 04:54:25;;;;;;;;;;;20.50;99.90;;;;;;4592115;19;19930;-24
2022/09/01 04:55:56;;;;;;;;;;;20.50;99.90;;;;;;4593192;19;19919;-24
2022/09/01 04:57:28;;;;;;;;;;;20.40;99.90;;;;;;4589088;19;19923;-26
2022/09/01 04:59:00;;;;;;;;;;;20.40;99.90;;;;;;4589008;19;19923;-26
2022/09/01 05:00:31;;;;;;;;;;;20.40;99.90;;;;;;4590170;19;19931;-26
2022/09/01 05:02:06;;;;;;;;;;;20.40;99.90;;;;;;4590503;19;20332;-23
2022/09/01 05:03:37;;;;;;;;;;;20.40;99.90;;;;;;4588742;19;19915;-23
2022/09/01 05:05:11;;;;;;;;;;;20.40;99.90;;;;;;4588701;19;19924;-25
2022/09/01 05:06:48;;;;;;;;;;;20.40;99.90;;;;;;4590425;19;20263;-24
2022/09/01 05:08:19;;;;;;;;;;;20.40;99.90;;;;;;4590641;19;19919;-25
2022/09/01 05:09:51;;;;;;;;;;;20.40;99.90;;;;;;4589217;19;19936;-23
2022/09/01 05:11:22;;;;;;;;;;;20.40;99.90;;;;;;4589767;19;19923;-24
2022/09/01 05:12:54;;;;;;;;;;;20.40;99.90;;;;;;4590167;19;19922;-23
2022/09/01 05:14:25;;;;;;;;;;;20.40;99.90;;;;;;4590547;19;19922;-23
2022/09/01 05:16:05;;;;;;;;;;;20.40;99.90;;;;;;4590497;19;20336;-24
2022/09/01 05:17:37;;;;;;;;;;;20.40;99.90;;;;;;4590813;19;19938;-24
2022/09/01 05:19:13;;;;;;;;;;;20.40;99.90;;;;;;4589778;19;19930;-23
2022/09/01 05:20:44;;;;;;;;;;;20.40;99.90;;;;;;4590144;19;19915;-23
2022/09/01 05:22:20;;;;;;;;;;;20.40;99.90;;;;;;4589046;19;19929;-23
2022/09/01 05:23:53;;;;;;;;;;;20.40;99.90;;;;;;4589477;19;19987;-22
2022/09/01 05:25:24;;;;;;;;;;;20.40;99.90;;;;;;4589220;19;19926;-24
2022/09/01 05:26:56;;;;;;;;;;;20.40;99.90;;;;;;4588016;19;19915;-23
2022/09/01 05:28:27;;;;;;;;;;;20.40;99.90;;;;;;4589702;19;19925;-24
2022/09/01 05:29:59;;;;;;;;;;;20.40;99.90;;;;;;4590158;19;20328;-23
2022/09/01 05:31:36;;;;;;;;;;;20.60;99.90;;;;;;4589897;19;20328;-23
2022/09/01 05:33:10;;;;;;;;;;;20.70;99.90;;;;;;4588896;19;19925;-24
2022/09/01 05:34:43;;;;;;;;;;;20.80;99.90;;;;;;4588822;19;19918;-24
2022/09/01 05:36:16;;;;;;;;;;;20.90;99.90;;;;;;4589764;19;19978;-24
2022/09/01 05:37:50;;;;;;;;;;;20.90;99.90;;;;;;4590117;19;19919;-24
2022/09/01 05:39:21;;;;;;;;;;;21.00;99.90;;;;;;4589856;19;20328;-24
2022/09/01 05:40:56;;;;;;;;;;;21.00;99.90;;;;;;4589684;19;19919;-23
2022/09/01 05:42:28;;;;;;;;;;;21.00;99.90;;;;;;4589857;19;19923;-24
2022/09/01 05:43:59;;;;;;;;;;;21.10;99.90;;;;;;4588708;19;19914;-25
2022/09/01 05:45:30;;;;;;;;;;;21.10;99.90;;;;;;4588409;19;20001;-24
2022/09/01 05:47:02;;;;;;;;;;;21.10;99.90;;;;;;4589723;19;20327;-24
2022/09/01 05:48:38;;;;;;;;;;;21.10;99.90;;;;;;4589638;19;19990;-24
2022/09/01 05:50:09;;;;;;;;;;;21.10;99.90;;;;;;4589951;19;19918;-26
2022/09/01 05:51:41;;;;;;;;;;;21.10;99.90;;;;;;4588826;19;19910;-24
2022/09/01 05:53:16;;;;;;;;;;;21.10;99.90;;;;;;4589370;19;20269;-24
2022/09/01 05:54:47;;;;;;;;;;;21.10;99.90;;;;;;4588841;19;19915;-25
2022/09/01 05:56:18;;;;;;;;;;;21.10;99.90;;;;;;4589381;19;20025;-23
2022/09/01 05:57:49;;;;;;;;;;;21.00;99.90;;;;;;4589167;19;20333;-22
2022/09/01 05:59:22;;;;;;;;;;;21.00;99.90;;;;;;4589104;19;19919;-22
2022/09/01 06:00:54;;;;;;;;;;;20.90;99.90;;;;;;4590138;19;19936;-22
2022/09/01 06:02:25;;;;;;;;;;;20.90;99.90;;;;;;4589570;19;19941;-22
2022/09/01 06:03:56;;;;;;;;;;;20.80;99.90;;;;;;4588363;19;19915;-23
2022/09/01 06:05:27;;;;;;;;;;;20.80;99.90;;;;;;4588391;19;20237;-22
2022/09/01 06:06:58;;;;;;;;;;;20.80;99.90;;;;;;4589262;19;19910;-23
2022/09/01 06:08:29;;;;;;;;;;;20.80;99.90;;;;;;4589606;19;19922;-25
2022/09/01 06:10:00;;;;;;;;;;;20.80;99.90;;;;;;4589490;19;19923;-24
2022/09/01 06:11:31;;;;;;;;;;;20.80;99.90;;;;;;4591242;19;19919;-21
2022/09/01 06:13:04;;;;;;;;;;;20.80;99.90;;;;;;4591300;19;19915;-23
2022/09/01 06:14:35;;;;;;;;;;;20.80;99.90;;;;;;4591528;19;19939;-24
2022/09/01 06:16:07;;;;;;;;;;;20.80;99.90;;;;;;4591302;19;19926;-24
2022/09/01 06:17:38;;;;;;;;;;;20.80;99.90;;;;;;4593861;19;20399;-24
2022/09/01 06:19:11;;;;;;;;;;;20.80;99.90;;;;;;4593851;19;20264;-24
2022/09/01 06:20:42;;;;;;;;;;;20.80;99.90;;;;;;4594271;19;19927;-24
2022/09/01 06:22:13;;;;;;;;;;;20.80;99.90;;;;;;4596007;19;19925;-23
2022/09/01 06:23:44;;;;;;;;;;;20.80;99.90;;;;;;4593643;19;20323;-23
2022/09/01 06:25:18;;;;;;;;;;;20.80;99.90;;;;;;4594309;19;19923;-24
2022/09/01 06:26:49;;;;;;;;;;;20.80;99.90;;;;;;4594392;19;19918;-25
2022/09/01 06:28:22;;;;;;;;;;;20.90;99.90;;;;;;4592586;19;19925;-23
2022/09/01 06:29:55;;;;;;;;;;;20.90;99.90;;;;;;4594223;19;19992;-26
2022/09/01 06:31:27;;;;;;;;;;;20.90;99.90;;;;;;4594159;19;19926;-24
2022/09/01 06:33:00;;;;;;;;;;;20.90;99.90;;;;;;4595314;19;19921;-24
2022/09/01 06:34:35;;;;;;;;;;;21.00;99.90;;;;;;4595310;19;20001;-24
2022/09/01 06:36:08;;;;;;;;;;;21.00;99.90;;;;;;4593745;19;20371;-23
2022/09/01 06:37:42;;;;;;;;;;;20.90;99.90;;;;;;4593080;19;19963;-28
2022/09/01 06:39:18;;;;;;;;;;;20.80;99.90;;;;;;4592900;19;19914;-24
2022/09/01 06:40:57;;;;;;;;;;;20.60;99.90;;;;;;4593606;19;20352;-24
2022/09/01 06:42:30;;;;;;;;;;;20.60;99.90;;;;;;4594290;19;19970;-25
2022/09/01 06:44:01;;;;;;;;;;;20.50;99.90;;;;;;4593148;19;19939;-23
2022/09/01 06:45:33;;;;;;;;;;;20.50;99.90;;;;;;4593310;19;20225;-24
2022/09/01 06:47:04;;;;;;;;;;;20.40;99.90;;;;;;4595868;19;19923;-26
2022/09/01 06:48:40;;;;;;;;;;;20.40;99.90;;;;;;4594698;19;19922;-23
2022/09/01 06:50:14;;;;;;;;;;;20.40;99.90;;;;;;4592501;19;19919;-24
2022/09/01 06:51:51;;;;;;;;;;;20.40;99.90;;;;;;4595138;19;19941;-24
2022/09/01 06:53:22;;;;;;;;;;;20.50;99.90;;;;;;4593222;19;19915;-25
2022/09/01 06:54:53;;;;;;;;;;;20.70;99.90;;;;;;4592159;19;19943;-24
2022/09/01 06:56:30;;;;;;;;;;;20.80;99.90;;;;;;4592282;19;19992;-26
2022/09/01 06:58:04;;;;;;;;;;;20.80;99.90;;;;;;4592024;19;20359;-23
2022/09/01 06:59:34;;;;;;;;;;;20.70;99.90;;;;;;4593092;19;19915;-26
2022/09/01 07:01:06;;;;;;;;;;;20.60;99.90;;;;;;4592959;19;19948;-23
2022/09/01 07:02:38;;;;;;;;;;;20.60;99.90;;;;;;4595584;19;19923;-25
2022/09/01 07:04:09;;;;;;;;;;;20.60;99.90;;;;;;4591814;19;19917;-24
2022/09/01 07:05:40;;;;;;;;;;;20.50;99.90;;;;;;4593013;19;19922;-24
2022/09/01 07:07:11;;;;;;;;;;;20.50;99.90;;;;;;4591976;19;19919;-23
2022/09/01 07:08:48;;;;;;;;;;;20.50;99.90;;;;;;4592622;19;20332;-24
2022/09/01 07:10:21;;;;;;;;;;;20.50;99.90;;;;;;4592866;19;19937;-23
2022/09/01 07:11:54;;;;;;;;;;;20.60;99.90;;;;;;4592848;19;19946;-24
2022/09/01 07:13:26;;;;;;;;;;;20.70;99.90;;;;;;4592654;19;19986;-26
2022/09/01 07:14:58;;;;;;;;;;;20.70;99.90;;;;;;4592610;19;19915;-24
2022/09/01 07:16:29;;;;;;;;;;;20.60;99.90;;;;;;4593068;19;19914;-22
2022/09/01 07:18:01;;;;;;;;;;;20.60;99.90;;;;;;4592703;19;19925;-25
2022/09/01 07:19:34;;;;;;;;;;;20.60;99.90;;;;;;4592761;19;19949;-24
2022/09/01 07:21:06;;;;;;;;;;;20.50;99.90;;;;;;4591819;19;19935;-23
2022/09/01 07:22:37;;;;;;;;;;;20.50;99.90;;;;;;4592664;19;19925;-23
2022/09/01 07:24:09;;;;;;;;;;;20.50;99.90;;;;;;4591362;19;19914;-23
2022/09/01 07:25:42;;;;;;;;;;;20.60;99.90;;;;;;4591611;19;19926;-23
2022/09/01 07:27:13;;;;;;;;;;;20.50;99.90;;;;;;4591833;19;20229;-24
2022/09/01 07:28:45;;;;;;;;;;;20.50;99.90;;;;;;4591599;19;19988;-21
2022/09/01 07:30:17;;;;;;;;;;;20.50;99.90;;;;;;4592541;19;19918;-22
2022/09/01 07:31:49;;;;;;;;;;;20.50;99.90;;;;;;4591173;19;19937;-23
2022/09/01 07:33:22;;;;;;;;;;;20.50;99.90;;;;;;4592168;19;19923;-24
2022/09/01 07:34:53;;;;;;;;;;;20.50;99.90;;;;;;4594220;19;19986;-24
2022/09/01 07:36:25;;;;;;;;;;;20.50;99.90;;;;;;4595029;19;19915;-23
2022/09/01 07:38:08;;;;;;;;;;;20.50;99.90;;;;;;4592920;19;19922;-23
2022/09/01 07:39:45;;;;;;;;;;;20.50;99.90;;;;;;4593155;19;19914;-23
2022/09/01 07:41:16;;;;;;;;;;;20.50;99.90;;;;;;4590942;19;19918;-22
2022/09/01 07:42:52;;;;;;;;;;;20.60;99.90;;;;;;4592113;19;19956;-23
2022/09/01 07:44:24;;;;;;;;;;;20.70;99.90;;;;;;4592387;19;19927;-24
2022/09/01 07:45:58;;;;;;;;;;;20.80;99.90;;;;;;4592563;19;19910;-23
2022/09/01 07:47:29;;;;;;;;;;;20.90;99.90;;;;;;4591061;19;19923;-23
2022/09/01 07:49:00;;;;;;;;;;;21.00;99.90;;;;;;4593510;19;19944;-23
2022/09/01 07:50:32;;;;;;;;;;;21.00;99.90;;;;;;4590869;19;20305;-24
2022/09/01 07:52:04;;;;;;;;;;;21.10;99.90;;;;;;4590347;19;20309;-23
2022/09/01 07:53:34;;;;;;;;;;;21.10;99.90;;;;;;4593423;19;19919;-24
2022/09/01 07:55:07;;;;;;;;;;;21.10;99.90;;;;;;4593186;19;19918;-24
2022/09/01 07:56:39;;;;;;;;;;;21.10;99.90;;;;;;4593106;19;19956;-24
2022/09/01 07:58:10;;;;;;;;;;;21.20;99.90;;;;;;4594115;19;19930;-24
2022/09/01 07:59:41;;;;;;;;;;;21.20;99.90;;;;;;4594567;19;19978;-23
2022/09/01 08:01:16;;;;;;;;;;;21.30;99.90;;;;;;4589311;19;20281;-24
2022/09/01 08:02:46;;;;;;;;;;;21.30;99.90;;;;;;4589454;19;19926;-23
2022/09/01 08:04:21;;;;;;;;;;;21.30;99.90;;;;;;4589644;19;20276;-24
2022/09/01 08:05:56;;;;;;;;;;;21.30;99.90;;;;;;4593821;19;19911;-23
2022/09/01 08:07:27;;;;;;;;;;;21.30;99.90;;;;;;4591758;19;19921;-23
2022/09/01 08:08:59;;;;;;;;;;;21.30;99.90;;;;;;4591142;19;20377;-23
2022/09/01 08:10:30;;;;;;;;;;;21.30;99.90;;;;;;4592093;19;20262;-23
2022/09/01 08:12:01;;;;;;;;;;;21.40;99.90;;;;;;4591120;19;20328;-24
2022/09/01 08:13:33;;;;;;;;;;;21.40;99.90;;;;;;4590875;19;20379;-24
2022/09/01 08:15:04;;;;;;;;;;;21.40;99.90;;;;;;4591749;19;19956;-24
2022/09/01 08:16:36;;;;;;;;;;;21.40;99.90;;;;;;4594096;19;19915;-23
2022/09/01 08:18:07;;;;;;;;;;;21.40;99.90;;;;;;4591590;19;19915;-24
2022/09/01 08:19:38;;;;;;;;;;;21.40;99.90;;;;;;4591577;19;19941;-23
2022/09/01 08:21:10;;;;;;;;;;;21.40;99.90;;;;;;4589129;19;19951;-23
2022/09/01 08:22:41;;;;;;;;;;;21.40;99.90;;;;;;4589047;19;19915;-24
2022/09/01 08:24:13;;;;;;;;;;;21.40;99.90;;;;;;4586567;19;19919;-23
2022/09/01 08:25:54;;;;;;;;;;;21.40;99.90;;;;;;4591172;19;20363;-23
2022/09/01 08:27:35;;;;;;;;;;;21.40;99.90;;;;;;4589026;19;19919;-23
2022/09/01 08:29:07;;;;;;;;;;;21.50;99.90;;;;;;4591049;19;19927;-24
2022/09/01 08:30:40;;;;;;;;;;;21.50;99.90;;;;;;4589607;19;19929;-26
2022/09/01 08:32:11;;;;;;;;;;;21.50;99.90;;;;;;4589005;19;19922;-23
2022/09/01 08:34:11;;;;;;;;;;;21.50;99.90;;;;;;4589196;19;20479;-24
2022/09/01 08:35:43;;;;;;;;;;;21.50;99.90;;;;;;4590020;19;19982;-23
2022/09/01 08:37:15;;;;;;;;;;;21.50;99.90;;;;;;4590552;19;19926;-24
2022/09/01 08:38:48;;;;;;;;;;;21.60;99.90;;;;;;4589141;19;19923;-25
2022/09/01 08:40:19;;;;;;;;;;;21.60;99.90;;;;;;4589591;19;20293;-23
2022/09/01 08:41:57;;;;;;;;;;;21.60;99.90;;;;;;4591749;19;19914;-24
2022/09/01 08:43:47;;;;;;;;;;;21.50;99.90;;;;;;4591535;19;19926;-25
2022/09/01 08:45:22;;;;;;;;;;;21.50;99.90;;;;;;4590580;19;19929;-24
2022/09/01 08:46:56;;;;;;;;;;;21.50;99.90;;;;;;4587712;19;19922;-22
2022/09/01 08:48:35;;;;;;;;;;;21.60;99.90;;;;;;4589465;19;19946;-23
2022/09/01 08:50:07;;;;;;;;;;;21.60;99.90;;;;;;4592884;19;20336;-22
2022/09/01 08:51:41;;;;;;;;;;;21.60;99.90;;;;;;4591483;19;19926;-24
2022/09/01 08:53:25;;;;;;;;;;;21.60;99.90;;;;;;4591062;19;20291;-24
2022/09/01 08:55:02;;;;;;;;;;;21.60;99.90;;;;;;4591604;19;19926;-26
2022/09/01 08:56:34;;;;;;;;;;;21.70;99.90;;;;;;4590598;19;19911;-24
2022/09/01 08:58:07;;;;;;;;;;;21.80;99.90;;;;;;4590036;19;19918;-26
2022/09/01 08:59:39;;;;;;;;;;;21.70;99.90;;;;;;4591899;19;19923;-25
2022/09/01 09:01:18;;;;;;;;;;;21.70;99.90;;;;;;4590003;19;19925;-24
2022/09/01 09:02:52;;;;;;;;;;;21.70;99.90;;;;;;4591577;19;20325;-23
2022/09/01 09:04:23;;;;;;;;;;;21.70;99.90;;;;;;4591698;19;19914;-25